Time;durP1;ratioP1;P1;durP2;ratioP2;P2;SDS_P1;SDS_P2;PMS_P1;PMS_P2;Temp;Humidity;BMP_temperature;BMP_pressure;BME280_temperature;BME280_humidity;BME280_pressure;Samples;Min_cycle;Max_cycle;Signal;HPM_P1;HPM_P2
2023/12/04 00:01:18;;;;;;;0.70;0.20;;;0.10;55.20;;;;;;4863807;29;20491;-72
2023/12/04 00:03:47;;;;;;;0.80;0.50;;;0.10;56.70;;;;;;4863677;29;20458;-71
2023/12/04 00:06:15;;;;;;;0.70;0.10;;;0.00;55.30;;;;;;4868320;29;20534;-72
2023/12/04 00:08:43;;;;;;;3.90;1.67;;;0.10;57.60;;;;;;4875859;29;20465;-73
2023/12/04 00:11:11;;;;;;;2.90;2.30;;;0.10;58.10;;;;;;4880755;29;20453;-73
2023/12/04 00:13:39;;;;;;;1.37;1.27;;;0.10;58.40;;;;;;4889989;29;20532;-72
2023/12/04 00:16:07;;;;;;;3.33;1.77;;;0.10;58.10;;;;;;4873141;29;20494;-73
2023/12/04 00:18:35;;;;;;;0.80;0.40;;;0.20;58.00;;;;;;4892767;29;20863;-74
2023/12/04 00:21:06;;;;;;;0.70;0.40;;;0.10;57.20;;;;;;4887067;29;21004;-72
2023/12/04 00:23:33;;;;;;;2.27;2.13;;;0.10;68.30;;;;;;4885882;29;20439;-72
2023/12/04 00:26:02;;;;;;;0.80;0.30;;;;;;;;;;4883024;29;20485;-73
2023/12/04 00:28:30;;;;;;;0.80;0.40;;;0.10;56.00;;;;;;4867426;29;20455;-72
2023/12/04 00:30:58;;;;;;;0.70;0.20;;;0.10;56.00;;;;;;4878708;29;20478;-72
2023/12/04 00:33:26;;;;;;;1.80;1.70;;;0.10;56.50;;;;;;4864279;29;20490;-72
2023/12/04 00:35:54;;;;;;;0.80;0.47;;;0.10;55.50;;;;;;4864897;29;20454;-73
2023/12/04 00:38:23;;;;;;;1.43;1.27;;;0.10;55.90;;;;;;4865079;29;20546;-72
2023/12/04 00:40:52;;;;;;;0.70;0.10;;;0.20;55.40;;;;;;4870633;29;20499;-73
2023/12/04 00:43:20;;;;;;;1.47;0.87;;;0.10;54.50;;;;;;4864045;29;20455;-71
2023/12/04 00:45:47;;;;;;;3.37;0.40;;;0.20;54.30;;;;;;4878813;29;20454;-73
2023/12/04 00:48:15;;;;;;;2.80;1.60;;;-0.10;51.70;;;;;;4879582;29;20454;-73
2023/12/04 00:50:43;;;;;;;0.80;0.50;;;-0.10;53.10;;;;;;4877582;29;20455;-72
2023/12/04 00:53:11;;;;;;;1.70;1.60;;;-0.20;53.10;;;;;;4868282;29;20455;-73
2023/12/04 00:55:41;;;;;;;0.70;0.10;;;-0.10;54.90;;;;;;4870852;29;20450;-71
2023/12/04 00:58:08;;;;;;;1.57;0.87;;;-0.20;53.80;;;;;;4870758;29;20549;-73
2023/12/04 01:00:37;;;;;;;0.83;0.37;;;-0.20;55.10;;;;;;4870914;29;20856;-71
2023/12/04 01:03:05;;;;;;;0.70;0.10;;;-0.20;55.10;;;;;;4862585;29;20490;-73
2023/12/04 01:05:32;;;;;;;1.63;1.53;;;-0.20;55.30;;;;;;4862679;29;20462;-74
2023/12/04 01:08:01;;;;;;;0.80;0.10;;;-0.30;55.00;;;;;;4870978;29;20982;-72
2023/12/04 01:10:29;;;;;;;0.70;0.10;;;-0.40;54.90;;;;;;4866145;29;20538;-73
2023/12/04 01:12:58;;;;;;;0.70;0.20;;;-0.30;54.20;;;;;;4867738;29;20453;-73
2023/12/04 01:15:26;;;;;;;1.00;0.77;;;-0.30;53.90;;;;;;4868611;29;20526;-73
2023/12/04 01:17:54;;;;;;;0.70;0.20;;;-0.30;54.60;;;;;;4882849;29;20985;-73
2023/12/04 01:20:23;;;;;;;3.10;2.20;;;-0.30;54.50;;;;;;4864890;29;20542;-73
2023/12/04 01:22:51;;;;;;;1.77;1.13;;;-0.40;52.20;;;;;;4863653;29;20495;-73
2023/12/04 01:25:18;;;;;;;0.70;0.10;;;-0.30;53.30;;;;;;4861854;29;20519;-73
2023/12/04 01:27:46;;;;;;;1.27;1.17;;;-0.30;53.40;;;;;;4863760;29;20547;-72
2023/12/04 01:30:16;;;;;;;0.70;0.20;;;-0.40;51.80;;;;;;4861747;29;20466;-72
2023/12/04 01:32:44;;;;;;;1.40;1.30;;;-0.50;51.20;;;;;;4861632;29;20454;-73
2023/12/04 01:35:11;;;;;;;1.97;1.63;;;-0.60;52.10;;;;;;4870764;29;20462;-72
2023/12/04 01:37:39;;;;;;;0.70;0.23;;;-0.70;53.30;;;;;;4872286;29;20513;-72
2023/12/04 01:40:08;;;;;;;5.73;5.27;;;-0.70;55.50;;;;;;4872113;29;20458;-72
2023/12/04 01:42:36;;;;;;;1.57;1.43;;;-0.60;55.40;;;;;;4872534;29;20500;-72
2023/12/04 01:45:07;;;;;;;0.83;0.70;;;-0.50;56.60;;;;;;4869621;29;20876;-73
2023/12/04 01:47:36;;;;;;;1.20;0.93;;;-0.60;53.70;;;;;;4868815;29;20482;-71
2023/12/04 01:50:05;;;;;;;2.10;1.80;;;-0.70;53.30;;;;;;4871279;29;20978;-73
2023/12/04 01:52:34;;;;;;;0.77;0.27;;;-0.60;53.80;;;;;;4871746;29;20450;-73
2023/12/04 01:55:02;;;;;;;4.30;1.10;;;-0.80;51.50;;;;;;4871786;29;21029;-73
2023/12/04 01:57:30;;;;;;;1.43;0.77;;;-0.70;52.50;;;;;;4871439;29;20526;-73
2023/12/04 01:59:58;;;;;;;0.80;0.43;;;-0.80;51.60;;;;;;4870261;29;20472;-73
2023/12/04 02:02:26;;;;;;;0.70;0.10;;;-0.70;55.00;;;;;;4868859;29;20590;-73
2023/12/04 02:04:56;;;;;;;1.10;0.90;;;-0.70;53.90;;;;;;4870234;29;20462;-72
2023/12/04 02:07:24;;;;;;;0.90;0.60;;;-0.70;53.20;;;;;;4872137;29;20478;-73
2023/12/04 02:09:53;;;;;;;0.80;0.37;;;-0.70;53.80;;;;;;4871211;29;20493;-72
2023/12/04 02:12:21;;;;;;;0.90;0.73;;;-0.70;62.90;;;;;;4869120;29;20451;-73
2023/12/04 02:14:49;;;;;;;0.70;0.40;;;-0.70;54.30;;;;;;4871938;29;21004;-74
2023/12/04 02:17:17;;;;;;;0.70;0.10;;;-0.60;52.80;;;;;;4877836;29;20561;-71
2023/12/04 02:19:45;;;;;;;0.70;0.10;;;-0.70;48.50;;;;;;4872259;29;20469;-72
2023/12/04 02:22:14;;;;;;;0.80;0.43;;;-0.90;47.80;;;;;;4863903;29;21070;-73
2023/12/04 02:24:44;;;;;;;0.73;0.27;;;-0.70;51.70;;;;;;4872282;29;20511;-71
2023/12/04 02:27:18;;;;;;;0.70;0.10;;;-0.60;51.10;;;;;;4870439;29;20475;-73
2023/12/04 02:29:52;;;;;;;0.70;0.20;;;-0.70;47.80;;;;;;4878364;29;20850;-72
2023/12/04 02:32:22;;;;;;;3.23;2.00;;;-0.70;47.90;;;;;;4869021;29;20454;-71
2023/12/04 02:34:51;;;;;;;0.90;0.60;;;-0.70;46.60;;;;;;4871054;29;20884;-73
2023/12/04 02:37:20;;;;;;;0.90;0.63;;;-0.70;46.50;;;;;;4875279;29;20487;-71
2023/12/04 02:39:52;;;;;;;2.13;0.97;;;-0.70;56.90;;;;;;4868782;29;20552;-73
2023/12/04 02:42:20;;;;;;;2.27;1.93;;;-0.80;45.10;;;;;;4865057;29;20481;-71
2023/12/04 02:44:48;;;;;;;1.33;1.10;;;-0.90;46.10;;;;;;4871792;29;20554;-72
2023/12/04 02:47:16;;;;;;;2.77;2.57;;;-0.90;46.60;;;;;;4871841;29;20539;-73
2023/12/04 02:49:44;;;;;;;1.10;0.83;;;-1.00;46.00;;;;;;4864159;29;21016;-73
2023/12/04 02:52:12;;;;;;;0.80;0.40;;;-1.00;45.40;;;;;;4863258;29;20446;-71
2023/12/04 02:54:40;;;;;;;2.13;1.87;;;-1.10;45.70;;;;;;4872391;29;20451;-71
2023/12/04 02:57:09;;;;;;;2.97;1.10;;;-1.10;47.10;;;;;;4919206;24;20860;-73
2023/12/04 02:59:37;;;;;;;0.70;0.20;;;-1.10;47.70;;;;;;4899382;29;20464;-72
2023/12/04 03:02:05;;;;;;;0.70;0.20;;;-0.90;49.80;;;;;;4898560;29;20449;-74
2023/12/04 03:04:34;;;;;;;2.73;2.53;;;-1.00;48.70;;;;;;4902995;29;20452;-74
2023/12/04 03:07:02;;;;;;;0.70;0.20;;;-0.90;48.60;;;;;;4888520;29;20899;-73
2023/12/04 03:09:29;;;;;;;1.07;0.87;;;-0.90;47.70;;;;;;4885010;29;20454;-72
2023/12/04 03:12:17;;;;;;;3.57;0.77;;;-1.00;45.80;;;;;;4878882;29;20480;-73
2023/12/04 03:14:45;;;;;;;3.57;1.70;;;-1.20;46.60;;;;;;4877925;29;20466;-73
2023/12/04 03:17:13;;;;;;;1.53;1.40;;;-1.10;48.30;;;;;;4882886;29;20552;-74
2023/12/04 03:19:41;;;;;;;0.70;0.10;;;-1.10;47.40;;;;;;4884593;29;20456;-73
2023/12/04 03:22:09;;;;;;;1.47;1.37;;;-1.10;47.70;;;;;;4878064;29;20457;-74
2023/12/04 03:24:37;;;;;;;0.90;0.40;;;-1.20;46.60;;;;;;4878206;29;20533;-74
2023/12/04 03:27:05;;;;;;;0.90;0.73;;;-1.10;50.00;;;;;;4885279;29;20501;-74
2023/12/04 03:29:34;;;;;;;0.70;0.10;;;-1.10;48.90;;;;;;4883923;29;20630;-74
2023/12/04 03:32:02;;;;;;;4.47;3.27;;;-1.00;48.90;;;;;;4879162;29;20456;-74
2023/12/04 03:34:30;;;;;;;0.70;0.20;;;-1.00;47.60;;;;;;4878302;29;20468;-74
2023/12/04 03:36:58;;;;;;;1.63;1.33;;;-1.00;47.40;;;;;;4878533;29;20474;-74
2023/12/04 03:39:26;;;;;;;1.53;1.13;;;-0.90;46.80;;;;;;4886726;29;20820;-73
2023/12/04 03:41:53;;;;;;;1.17;0.97;;;-1.00;45.40;;;;;;4877800;29;20458;-73
2023/12/04 03:44:21;;;;;;;0.70;0.20;;;-1.10;45.40;;;;;;4879392;29;20486;-73
2023/12/04 03:46:51;;;;;;;7.23;2.00;;;-1.20;45.00;;;;;;4886509;29;20480;-74
2023/12/04 03:49:19;;;;;;;1.50;1.40;;;-1.30;44.40;;;;;;4872035;29;20451;-74
2023/12/04 03:51:47;;;;;;;2.60;2.50;;;-1.10;47.50;;;;;;4879157;29;20558;-74
2023/12/04 03:54:15;;;;;;;1.90;1.80;;;-1.10;45.70;;;;;;4887524;29;20454;-74
2023/12/04 03:56:43;;;;;;;1.27;0.83;;;-1.20;46.70;;;;;;4881244;29;20477;-74
2023/12/04 03:59:11;;;;;;;0.70;0.10;;;-1.20;46.70;;;;;;4880981;29;20544;-74
2023/12/04 04:01:40;;;;;;;0.70;0.10;;;-1.10;47.60;;;;;;4880926;29;20496;-74
2023/12/04 04:04:10;;;;;;;0.80;0.50;;;-1.10;47.40;;;;;;4880732;29;20501;-72
2023/12/04 04:06:38;;;;;;;0.73;0.30;;;-1.10;47.20;;;;;;4880892;29;20944;-73
2023/12/04 04:09:06;;;;;;;0.70;0.10;;;-1.00;45.90;;;;;;4880957;29;20609;-75
2023/12/04 04:11:34;;;;;;;3.63;2.03;;;-1.10;44.80;;;;;;4888236;29;20542;-73
2023/12/04 04:14:03;;;;;;;1.37;0.40;;;-1.10;45.40;;;;;;4880815;29;20446;-73
2023/12/04 04:16:31;;;;;;;1.40;1.23;;;-1.10;46.00;;;;;;4879483;29;20494;-73
2023/12/04 04:18:59;;;;;;;0.90;0.77;;;;;;;;;;4895337;29;20500;-73
2023/12/04 04:21:29;;;;;;;0.70;0.20;;;-0.90;45.30;;;;;;4880440;29;20474;-73
2023/12/04 04:23:57;;;;;;;1.90;1.23;;;-0.90;44.60;;;;;;4880059;29;20492;-73
2023/12/04 04:26:25;;;;;;;0.70;0.10;;;-0.90;43.60;;;;;;4880014;29;20505;-73
2023/12/04 04:28:53;;;;;;;0.70;0.20;;;-0.90;43.70;;;;;;4880139;29;20985;-73
2023/12/04 04:31:21;;;;;;;1.00;0.40;;;1.10;45.80;;;;;;4872618;29;20518;-73
2023/12/04 04:33:48;;;;;;;1.90;1.73;;;-0.90;43.70;;;;;;4879934;29;20493;-72
2023/12/04 04:36:16;;;;;;;7.90;4.90;;;-1.00;43.20;;;;;;4879458;29;20477;-73
2023/12/04 04:38:45;;;;;;;5.90;3.93;;;-1.10;41.20;;;;;;4887604;29;20458;-73
2023/12/04 04:41:14;;;;;;;8.57;2.43;;;-1.20;44.10;;;;;;4880909;29;20450;-74
2023/12/04 04:43:42;;;;;;;1.90;1.80;;;-1.10;43.60;;;;;;4883307;29;20491;-74
2023/12/04 04:46:10;;;;;;;1.33;1.03;;;-1.10;44.10;;;;;;4880313;29;20529;-74
2023/12/04 04:48:38;;;;;;;0.70;0.10;;;-1.10;44.00;;;;;;4880735;29;20453;-73
2023/12/04 04:51:07;;;;;;;1.00;0.37;;;-1.10;44.50;;;;;;4880042;29;20945;-73
2023/12/04 04:53:34;;;;;;;0.70;0.20;;;-1.10;45.10;;;;;;4880538;29;20486;-74
2023/12/04 04:56:04;;;;;;;0.70;0.10;;;-0.90;44.50;;;;;;4880194;29;20478;-74
2023/12/04 04:58:32;;;;;;;0.70;0.20;;;-0.80;44.30;;;;;;4880605;29;20479;-74
2023/12/04 05:01:00;;;;;;;1.17;0.80;;;-0.90;41.40;;;;;;4888346;29;20454;-74
2023/12/04 05:03:28;;;;;;;2.20;1.70;;;-1.00;39.70;;;;;;4879424;29;20505;-74
2023/12/04 05:05:57;;;;;;;1.00;0.60;;;-1.10;39.70;;;;;;4878067;29;20466;-74
2023/12/04 05:08:25;;;;;;;0.70;0.20;;;-1.00;42.30;;;;;;4879232;29;20459;-74
2023/12/04 05:10:53;;;;;;;0.70;0.10;;;-0.90;43.30;;;;;;4886293;29;20461;-74
2023/12/04 05:13:22;;;;;;;2.47;0.50;;;-0.90;42.00;;;;;;4886700;29;20643;-73
2023/12/04 05:15:50;;;;;;;1.30;0.20;;;-0.90;41.60;;;;;;4879211;29;20454;-73
2023/12/04 05:18:18;;;;;;;0.70;0.10;;;-0.90;41.30;;;;;;4886881;29;20513;-74
2023/12/04 05:20:46;;;;;;;1.53;1.17;;;0.40;42.40;;;;;;4887292;29;20467;-74
2023/12/04 05:23:14;;;;;;;0.90;0.37;;;-0.90;42.80;;;;;;4886403;29;20522;-74
2023/12/04 05:25:42;;;;;;;1.43;0.93;;;;;;;;;;4878973;29;20525;-74
2023/12/04 05:28:17;;;;;;;0.70;0.10;;;-0.80;43.50;;;;;;4881876;29;20534;-74
2023/12/04 05:30:47;;;;;;;0.70;0.10;;;-0.90;42.80;;;;;;4882202;29;21170;-74
2023/12/04 05:33:16;;;;;;;1.00;0.77;;;;;;;;;;4879226;29;20960;-74
2023/12/04 05:35:44;;;;;;;5.33;1.90;;;-0.80;42.70;;;;;;4879637;29;20481;-73
2023/12/04 05:38:12;;;;;;;0.70;0.10;;;-0.80;43.10;;;;;;4879208;29;20490;-74
2023/12/04 05:40:40;;;;;;;0.70;0.20;;;;;;;;;;4878834;29;20482;-75
2023/12/04 05:43:08;;;;;;;0.70;0.30;;;-0.90;41.70;;;;;;4887832;29;20848;-74
2023/12/04 05:45:35;;;;;;;0.70;0.20;;;-0.90;41.50;;;;;;4889683;29;20852;-74
2023/12/04 05:48:05;;;;;;;3.00;2.70;;;;;;;;;;4888710;29;20458;-74
2023/12/04 05:50:33;;;;;;;0.70;0.20;;;-1.00;41.70;;;;;;4876903;29;20471;-73
2023/12/04 05:53:01;;;;;;;0.70;0.30;;;-1.00;42.40;;;;;;4875223;29;20506;-74
2023/12/04 05:55:29;;;;;;;1.00;0.70;;;-1.00;42.00;;;;;;4878223;29;20442;-73
2023/12/04 05:57:57;;;;;;;0.80;0.50;;;-1.00;41.30;;;;;;4877963;29;20509;-74
2023/12/04 06:00:25;;;;;;;5.80;1.37;;;-1.00;41.30;;;;;;4869938;29;20501;-74
2023/12/04 06:02:56;;;;;;;1.17;0.80;;;-1.10;41.80;;;;;;4885613;29;20459;-74
2023/12/04 06:05:25;;;;;;;5.23;1.03;;;-1.10;43.10;;;;;;4885891;29;20484;-73
2023/12/04 06:07:53;;;;;;;3.63;1.70;;;-1.10;41.90;;;;;;4880949;29;20486;-73
2023/12/04 06:10:21;;;;;;;3.03;1.73;;;-1.10;41.90;;;;;;4876397;29;20450;-73
2023/12/04 06:12:49;;;;;;;0.80;0.43;;;-1.20;43.60;;;;;;4874830;29;20457;-73
2023/12/04 06:15:17;;;;;;;0.70;0.20;;;-1.10;44.10;;;;;;4880682;29;20986;-74
2023/12/04 06:17:45;;;;;;;0.80;0.53;;;-1.20;42.30;;;;;;4880965;29;21028;-74
2023/12/04 06:20:13;;;;;;;8.00;0.63;;;-1.20;42.90;;;;;;4887195;29;20917;-74
2023/12/04 06:22:43;;;;;;;2.57;2.33;;;-1.10;44.10;;;;;;4879279;29;20458;-74
2023/12/04 06:25:13;;;;;;;2.93;0.93;;;-1.10;43.80;;;;;;4886141;29;20492;-74
2023/12/04 06:27:41;;;;;;;0.90;0.70;;;-1.10;43.30;;;;;;4877494;29;20477;-74
2023/12/04 06:30:10;;;;;;;4.37;1.87;;;-1.10;41.80;;;;;;4878032;29;20824;-74
2023/12/04 06:32:38;;;;;;;0.70;0.10;;;-1.10;41.10;;;;;;4881038;29;20475;-74
2023/12/04 06:35:08;;;;;;;0.70;0.20;;;-1.10;40.90;;;;;;4885545;29;20451;-74
2023/12/04 06:37:37;;;;;;;2.20;0.47;;;-1.10;40.60;;;;;;4889340;29;20474;-75
2023/12/04 06:40:10;;;;;;;1.40;0.97;;;-1.00;42.10;;;;;;4891449;29;20470;-73
2023/12/04 06:42:39;;;;;;;1.47;0.70;;;-1.00;43.90;;;;;;4901310;29;20457;-74
2023/12/04 06:45:08;;;;;;;0.80;0.50;;;2.90;46.80;;;;;;4899968;29;20590;-74
2023/12/04 06:47:38;;;;;;;3.53;1.50;;;-0.90;44.30;;;;;;4883096;29;20490;-74
2023/12/04 06:50:07;;;;;;;0.70;0.10;;;-0.90;45.00;;;;;;4886192;29;20450;-74
2023/12/04 06:52:34;;;;;;;1.63;1.53;;;-0.90;43.90;;;;;;4878139;29;20476;-74
2023/12/04 06:55:02;;;;;;;1.07;0.73;;;-0.80;44.80;;;;;;4875561;29;20466;-74
2023/12/04 06:57:32;;;;;;;0.80;0.50;;;-0.70;44.00;;;;;;4885360;29;20829;-74
2023/12/04 06:59:59;;;;;;;0.83;0.63;;;-0.70;42.60;;;;;;4872290;29;20561;-74
2023/12/04 07:02:27;;;;;;;0.70;0.10;;;-0.70;41.00;;;;;;4876394;29;20465;-74
2023/12/04 07:04:55;;;;;;;0.70;0.20;;;-0.70;40.00;;;;;;4877909;29;20581;-73
2023/12/04 07:07:23;;;;;;;1.43;1.33;;;-0.70;40.00;;;;;;4877866;29;20553;-73
2023/12/04 07:09:51;;;;;;;2.10;1.83;;;-0.80;39.70;;;;;;4878152;29;20450;-73
2023/12/04 07:12:20;;;;;;;4.57;3.80;;;-0.70;40.90;;;;;;4877605;29;20458;-75
2023/12/04 07:14:49;;;;;;;0.70;0.10;;;-0.80;39.10;;;;;;4875978;29;20446;-74
2023/12/04 07:17:17;;;;;;;3.33;2.03;;;-0.80;39.50;;;;;;4876657;29;20531;-73
2023/12/04 07:19:45;;;;;;;1.53;1.20;;;-0.90;39.50;;;;;;4877087;29;20458;-74
2023/12/04 07:22:13;;;;;;;3.13;2.30;;;-1.00;40.20;;;;;;4885455;29;20453;-74
2023/12/04 07:24:40;;;;;;;1.50;1.27;;;-1.00;41.90;;;;;;4885828;29;20525;-74
2023/12/04 07:27:09;;;;;;;0.70;0.20;;;-1.10;41.60;;;;;;4877421;29;20466;-74
2023/12/04 07:29:38;;;;;;;0.97;0.90;;;-1.10;43.00;;;;;;4879095;29;20449;-74
2023/12/04 07:32:08;;;;;;;2.03;1.80;;;-1.20;42.80;;;;;;4891038;29;20891;-75
2023/12/04 07:34:36;;;;;;;1.00;0.50;;;;;;;;;;4903071;29;20484;-75
2023/12/04 07:37:05;;;;;;;6.90;1.93;;;-1.20;44.60;;;;;;4885278;29;20985;-74
2023/12/04 07:39:33;;;;;;;2.57;2.37;;;-1.20;45.80;;;;;;4881801;29;20452;-75
2023/12/04 07:42:04;;;;;;;0.97;0.60;;;0.90;47.90;;;;;;4896929;29;20488;-74
2023/12/04 07:44:40;;;;;;;1.33;1.13;;;;;;;;;;4900582;29;20912;-73
2023/12/04 07:47:09;;;;;;;0.70;0.10;;;-1.30;47.40;;;;;;4879889;29;20532;-74
2023/12/04 07:49:38;;;;;;;0.70;0.20;;;;;;;;;;4888705;29;20609;-74
2023/12/04 07:52:06;;;;;;;0.70;0.37;;;-1.10;48.90;;;;;;4883058;29;20459;-75
2023/12/04 07:54:35;;;;;;;4.00;3.70;;;-1.10;48.00;;;;;;4892688;29;20453;-74
2023/12/04 07:57:03;;;;;;;0.80;0.67;;;;;;;;;;4899227;29;20477;-73
2023/12/04 07:59:31;;;;;;;1.53;0.77;;;-1.10;45.60;;;;;;4872925;29;20861;-75
2023/12/04 08:01:59;;;;;;;0.90;0.57;;;-1.10;45.50;;;;;;4887546;29;20457;-74
2023/12/04 08:04:28;;;;;;;0.80;0.30;;;-1.00;46.60;;;;;;4881091;29;20801;-74
2023/12/04 08:06:56;;;;;;;1.10;0.77;;;-1.00;45.80;;;;;;4889092;29;20858;-74
2023/12/04 08:09:24;;;;;;;0.70;0.17;;;-1.10;45.00;;;;;;4881483;29;20454;-73
2023/12/04 08:11:52;;;;;;;0.70;0.10;;;-0.90;46.60;;;;;;4881521;29;20489;-74
2023/12/04 08:14:24;;;;;;;0.70;0.10;;;-0.90;45.60;;;;;;4883770;29;20460;-74
2023/12/04 08:16:52;;;;;;;0.70;0.10;;;-0.80;46.80;;;;;;4899763;29;20493;-73
2023/12/04 08:19:20;;;;;;;3.47;1.43;;;-0.70;44.40;;;;;;4883417;29;20450;-73
2023/12/04 08:21:50;;;;;;;2.00;1.90;;;-0.70;42.30;;;;;;4880746;29;20507;-74
2023/12/04 08:24:18;;;;;;;6.90;3.90;;;-4.10;37.20;;;;;;4898194;29;20460;-74
2023/12/04 08:26:46;;;;;;;1.20;0.93;;;-0.80;39.00;;;;;;4897293;29;20538;-75
2023/12/04 08:29:14;;;;;;;0.90;0.60;;;-0.70;40.20;;;;;;4881675;29;20458;-73
2023/12/04 08:31:42;;;;;;;0.70;0.20;;;-0.70;39.00;;;;;;4882786;29;20969;-75
2023/12/04 08:34:10;;;;;;;3.73;1.03;;;-0.70;37.50;;;;;;4889391;29;20611;-74
2023/12/04 08:36:37;;;;;;;0.70;0.10;;;-0.60;36.50;;;;;;4894778;29;20543;-74
2023/12/04 08:39:14;;;;;;;1.40;0.90;;;-0.60;35.20;;;;;;4900362;29;20524;-73
2023/12/04 08:41:46;;;;;;;0.80;0.40;;;-0.60;33.60;;;;;;4880423;29;20957;-74
2023/12/04 08:44:28;;;;;;;0.70;0.10;;;-0.50;33.90;;;;;;4880853;29;20470;-74
2023/12/04 08:46:57;;;;;;;3.90;3.60;;;-0.50;33.10;;;;;;4879982;29;20489;-75
2023/12/04 08:49:26;;;;;;;0.70;0.30;;;-0.50;31.90;;;;;;4887971;29;20454;-73
2023/12/04 08:52:07;;;;;;;6.53;2.10;;;-0.50;31.20;;;;;;4880772;29;20446;-73
2023/12/04 08:54:39;;;;;;;9.33;0.57;;;-0.50;30.90;;;;;;4876111;29;20450;-71
2023/12/04 08:57:07;;;;;;;10.13;2.20;;;-0.50;31.50;;;;;;4883960;29;20501;-73
2023/12/04 08:59:35;;;;;;;1.10;0.37;;;-0.40;31.30;;;;;;4884564;29;20517;-74
2023/12/04 09:02:04;;;;;;;1.97;1.17;;;-0.40;28.90;;;;;;4898663;29;21028;-73
2023/12/04 09:04:32;;;;;;;1.43;0.40;;;0.20;29.40;;;;;;4895682;29;20474;-72
2023/12/04 09:07:01;;;;;;;0.70;0.20;;;2.10;32.20;;;;;;4879878;29;20584;-73
2023/12/04 09:09:50;;;;;;;0.70;0.20;;;-0.30;29.70;;;;;;4880675;29;20435;-73
2023/12/04 09:12:18;;;;;;;1.03;0.87;;;-0.20;29.30;;;;;;4879759;29;20513;-75
2023/12/04 09:14:46;;;;;;;0.70;0.20;;;-0.20;28.50;;;;;;4877585;29;20498;-73
2023/12/04 09:17:14;;;;;;;2.50;2.30;;;-0.20;27.40;;;;;;4878272;29;20474;-74
2023/12/04 09:19:42;;;;;;;2.60;0.77;;;-0.10;27.30;;;;;;4879323;29;20454;-74
2023/12/04 09:22:10;;;;;;;0.70;0.20;;;-0.10;27.50;;;;;;4886865;29;20485;-75
2023/12/04 09:24:46;;;;;;;0.97;0.63;;;0.00;28.60;;;;;;4879977;29;20509;-73
2023/12/04 09:27:16;;;;;;;0.80;0.50;;;0.10;28.30;;;;;;4879772;29;20500;-72
2023/12/04 09:29:44;;;;;;;0.70;0.30;;;0.20;27.50;;;;;;4885684;29;20473;-73
2023/12/04 09:32:12;;;;;;;2.87;2.53;;;0.20;25.40;;;;;;4878580;29;20442;-74
2023/12/04 09:34:40;;;;;;;1.17;1.00;;;0.10;23.90;;;;;;4878540;29;20678;-71
2023/12/04 09:37:08;;;;;;;0.80;0.40;;;0.10;23.00;;;;;;4885763;29;20470;-72
2023/12/04 09:39:40;;;;;;;0.90;0.43;;;0.10;23.10;;;;;;4878406;29;20457;-72
2023/12/04 09:42:09;;;;;;;1.43;0.63;;;0.00;22.70;;;;;;4878417;29;20462;-72
2023/12/04 09:44:41;;;;;;;0.70;0.10;;;0.20;24.30;;;;;;4874714;29;20445;-71
2023/12/04 09:47:10;;;;;;;0.70;0.10;;;0.20;23.60;;;;;;4883205;29;20490;-74
2023/12/04 09:49:38;;;;;;;4.30;2.00;;;0.30;23.90;;;;;;4882318;29;20449;-71
2023/12/04 09:52:07;;;;;;;0.70;0.10;;;0.30;23.30;;;;;;4881957;29;20958;-73
2023/12/04 09:54:37;;;;;;;0.90;0.60;;;0.40;22.30;;;;;;4878167;29;20514;-72
2023/12/04 09:57:06;;;;;;;1.33;1.23;;;0.40;21.90;;;;;;4873897;29;20993;-75
2023/12/04 09:59:36;;;;;;;0.70;0.20;;;0.40;20.70;;;;;;4881764;29;20443;-75
2023/12/04 10:02:06;;;;;;;0.70;0.17;;;0.40;20.20;;;;;;4878800;29;20549;-75
2023/12/04 10:04:34;;;;;;;0.70;0.10;;;0.30;20.40;;;;;;4886091;29;20446;-74
2023/12/04 10:07:03;;;;;;;5.27;1.40;;;0.40;19.60;;;;;;4877430;29;20490;-75
2023/12/04 10:09:31;;;;;;;0.70;0.20;;;1.70;21.40;;;;;;4879876;29;20465;-75
2023/12/04 10:12:00;;;;;;;0.70;0.10;;;0.40;19.10;;;;;;4881696;29;20930;-73
2023/12/04 10:14:28;;;;;;;1.30;0.93;;;0.50;19.40;;;;;;4876905;29;20443;-73
2023/12/04 10:16:56;;;;;;;0.70;0.10;;;0.50;19.10;;;;;;4884354;29;20538;-73
2023/12/04 10:19:27;;;;;;;0.70;0.20;;;0.60;18.50;;;;;;4876855;29;20514;-75
2023/12/04 10:21:58;;;;;;;0.70;0.10;;;0.60;17.70;;;;;;4878512;29;20444;-74
2023/12/04 10:24:32;;;;;;;0.70;0.20;;;0.60;18.00;;;;;;4884363;29;20948;-75
2023/12/04 10:27:01;;;;;;;0.70;0.10;;;0.60;18.10;;;;;;4885772;29;20499;-75
2023/12/04 10:29:31;;;;;;;0.70;0.20;;;0.60;17.10;;;;;;4877650;29;21215;-75
2023/12/04 10:32:02;;;;;;;0.70;0.10;;;;;;;;;;4878182;29;20509;-75
2023/12/04 10:34:33;;;;;;;1.10;0.87;;;0.50;15.50;;;;;;4883439;29;20454;-74
2023/12/04 10:37:03;;;;;;;0.70;0.20;;;0.60;16.70;;;;;;4884665;29;20469;-73
2023/12/04 10:39:31;;;;;;;2.40;1.43;;;0.60;15.50;;;;;;4891333;29;20512;-73
2023/12/04 10:42:03;;;;;;;2.93;0.90;;;0.70;15.70;;;;;;4884330;29;20540;-74
2023/12/04 10:44:32;;;;;;;0.70;0.20;;;0.80;16.20;;;;;;4881574;29;20518;-74
2023/12/04 10:47:02;;;;;;;1.23;0.97;;;0.80;15.30;;;;;;4881554;29;20593;-75
2023/12/04 10:49:29;;;;;;;1.00;0.43;;;0.80;14.80;;;;;;4879356;29;20457;-75
2023/12/04 10:52:01;;;;;;;0.70;0.10;;;;;;;;;;4883582;29;20458;-75
2023/12/04 10:54:29;;;;;;;0.70;0.20;;;0.70;14.30;;;;;;4878782;29;20450;-74
2023/12/04 10:57:03;;;;;;;10.60;4.77;;;0.80;15.00;;;;;;4877731;29;20481;-75
2023/12/04 10:59:39;;;;;;;0.90;0.77;;;1.30;15.60;;;;;;4884740;29;20964;-75
2023/12/04 11:02:12;;;;;;;2.40;0.97;;;0.90;19.70;;;;;;4877934;29;20457;-73
2023/12/04 11:04:41;;;;;;;0.93;0.83;;;1.00;24.30;;;;;;4877760;29;20462;-75
2023/12/04 11:07:11;;;;;;;0.70;0.10;;;1.00;17.70;;;;;;4874767;29;20539;-75
2023/12/04 11:09:39;;;;;;;0.70;0.30;;;1.10;16.00;;;;;;4880980;29;20499;-74
2023/12/04 11:12:14;;;;;;;1.77;1.40;;;1.00;13.40;;;;;;4880872;29;20450;-74
2023/12/04 11:14:49;;;;;;;0.80;0.30;;;1.10;13.20;;;;;;4878060;29;21033;-74
2023/12/04 11:17:19;;;;;;;1.50;1.40;;;1.10;11.80;;;;;;4886712;29;20461;-73
2023/12/04 11:19:55;;;;;;;1.23;1.13;;;1.00;10.50;;;;;;4888404;29;20813;-74
2023/12/04 11:22:27;;;;;;;1.53;1.27;;;0.90;10.90;;;;;;4877529;29;20823;-75
2023/12/04 11:24:56;;;;;;;6.53;0.97;;;0.90;11.10;;;;;;4880841;29;20876;-74
2023/12/04 11:27:24;;;;;;;0.70;0.10;;;;;;;;;;4882471;29;20490;-74
2023/12/04 11:29:53;;;;;;;1.00;0.40;;;1.00;10.60;;;;;;4880586;29;20793;-75
2023/12/04 11:32:27;;;;;;;0.90;0.43;;;1.00;10.50;;;;;;4888794;29;20450;-73
2023/12/04 11:34:56;;;;;;;2.30;0.63;;;1.00;9.50;;;;;;4880705;29;20460;-75
2023/12/04 11:37:24;;;;;;;1.63;1.33;;;1.00;10.50;;;;;;4889136;29;20489;-74
2023/12/04 11:39:55;;;;;;;0.80;0.50;;;1.00;10.80;;;;;;4880478;29;20456;-74
2023/12/04 11:42:24;;;;;;;0.70;0.10;;;1.00;10.70;;;;;;4879729;29;20462;-74
2023/12/04 11:44:58;;;;;;;0.90;0.53;;;1.00;11.10;;;;;;4881292;29;20450;-74
2023/12/04 11:47:30;;;;;;;0.80;0.43;;;0.90;11.50;;;;;;4881581;29;20493;-74
2023/12/04 11:49:59;;;;;;;0.70;0.20;;;0.90;11.40;;;;;;4882761;29;21000;-75
2023/12/04 11:52:34;;;;;;;1.10;0.30;;;0.80;11.30;;;;;;4882011;29;20478;-75
2023/12/04 11:55:05;;;;;;;0.80;0.30;;;0.90;11.30;;;;;;4881948;29;20537;-73
2023/12/04 11:57:36;;;;;;;1.50;1.30;;;1.00;11.70;;;;;;4881432;29;20565;-73
2023/12/04 12:00:14;;;;;;;0.70;0.33;;;1.00;12.80;;;;;;4882419;29;20458;-73
2023/12/04 12:02:47;;;;;;;1.10;0.97;;;0.90;14.20;;;;;;4879176;29;20942;-75
2023/12/04 12:05:35;;;;;;;1.40;1.30;;;0.80;18.50;;;;;;4882672;29;20461;-73
2023/12/04 12:08:04;;;;;;;5.60;2.13;;;0.70;23.40;;;;;;4878044;29;20532;-75
2023/12/04 12:10:35;;;;;;;0.70;0.13;;;0.50;30.00;;;;;;4879893;29;20489;-74
2023/12/04 12:13:03;;;;;;;0.70;0.20;;;0.50;36.20;;;;;;4876629;29;20476;-74
2023/12/04 12:15:32;;;;;;;3.20;1.60;;;0.40;40.50;;;;;;4876405;29;20963;-74
2023/12/04 12:18:01;;;;;;;4.10;2.50;;;0.40;45.20;;;;;;4873389;29;20469;-74
2023/12/04 12:20:29;;;;;;;0.70;0.10;;;0.50;50.00;;;;;;4881303;29;20469;-75
2023/12/04 12:22:57;;;;;;;1.93;0.87;;;0.40;54.60;;;;;;4886141;29;20457;-75
2023/12/04 12:25:26;;;;;;;0.80;0.60;;;0.40;60.20;;;;;;4881530;29;20490;-74
2023/12/04 12:27:55;;;;;;;0.80;0.53;;;0.50;65.50;;;;;;4880732;29;20533;-74
2023/12/04 12:30:23;;;;;;;1.00;0.90;;;0.50;69.80;;;;;;4878762;29;20498;-74
2023/12/04 12:32:52;;;;;;;1.33;0.83;;;0.30;74.90;;;;;;4881813;29;20469;-74
2023/12/04 12:35:20;;;;;;;0.70;0.20;;;0.50;93.30;;;;;;4885741;29;20457;-74
2023/12/04 12:37:48;;;;;;;0.77;0.37;;;0.50;93.80;;;;;;4892359;29;21007;-75
2023/12/04 12:40:16;;;;;;;1.00;0.70;;;0.50;94.90;;;;;;4890193;29;20487;-74
2023/12/04 12:42:44;;;;;;;0.70;0.20;;;0.50;95.30;;;;;;4878260;29;20533;-74
2023/12/04 12:45:14;;;;;;;0.70;0.10;;;0.40;94.70;;;;;;4879839;29;20825;-73
2023/12/04 12:47:42;;;;;;;0.70;0.20;;;0.40;95.80;;;;;;4876877;29;20569;-73
2023/12/04 12:50:13;;;;;;;1.30;1.13;;;0.40;97.40;;;;;;4876246;29;20462;-74
2023/12/04 12:52:43;;;;;;;0.90;0.40;;;0.20;99.80;;;;;;4890140;29;20544;-75
2023/12/04 12:55:11;;;;;;;0.70;0.20;;;0.20;99.90;;;;;;4889421;29;20472;-73
2023/12/04 12:57:40;;;;;;;0.70;0.20;;;0.20;99.90;;;;;;4888080;29;20480;-73
2023/12/04 13:00:09;;;;;;;6.57;3.03;;;0.30;99.90;;;;;;4876385;29;20831;-75
2023/12/04 13:02:38;;;;;;;1.67;0.83;;;0.20;99.90;;;;;;4878486;29;20484;-73
2023/12/04 13:05:07;;;;;;;10.03;2.53;;;0.30;99.90;;;;;;4887147;29;20502;-74